sensor_id;sensor_type;location;lat;lon;timestamp;temperature;humidity
32706;DHT22;19094;50.972;3.538;2023-12-22T00:00:37;13.60;71.30
32706;DHT22;19094;50.972;3.538;2023-12-22T00:03:03;13.50;71.40
32706;DHT22;19094;50.972;3.538;2023-12-22T00:05:29;13.50;71.20
32706;DHT22;19094;50.972;3.538;2023-12-22T00:07:55;13.50;71.20
32706;DHT22;19094;50.972;3.538;2023-12-22T00:10:21;13.60;70.90
32706;DHT22;19094;50.972;3.538;2023-12-22T00:12:47;13.50;71.00
32706;DHT22;19094;50.972;3.538;2023-12-22T00:15:12;13.60;70.90
32706;DHT22;19094;50.972;3.538;2023-12-22T00:17:38;13.60;71.00
32706;DHT22;19094;50.972;3.538;2023-12-22T00:20:04;13.60;70.60
32706;DHT22;19094;50.972;3.538;2023-12-22T00:22:30;13.60;70.80
32706;DHT22;19094;50.972;3.538;2023-12-22T00:24:56;13.60;70.80
32706;DHT22;19094;50.972;3.538;2023-12-22T00:27:21;13.60;70.60
32706;DHT22;19094;50.972;3.538;2023-12-22T00:29:47;13.50;70.30
32706;DHT22;19094;50.972;3.538;2023-12-22T00:32:13;13.50;70.10
32706;DHT22;19094;50.972;3.538;2023-12-22T00:34:38;13.50;70.30
32706;DHT22;19094;50.972;3.538;2023-12-22T00:37:04;13.50;70.50
32706;DHT22;19094;50.972;3.538;2023-12-22T00:39:30;13.50;70.20
32706;DHT22;19094;50.972;3.538;2023-12-22T00:41:56;13.50;70.50
32706;DHT22;19094;50.972;3.538;2023-12-22T00:44:22;13.50;70.60
32706;DHT22;19094;50.972;3.538;2023-12-22T00:46:48;13.50;70.30
32706;DHT22;19094;50.972;3.538;2023-12-22T00:49:13;13.50;70.30
32706;DHT22;19094;50.972;3.538;2023-12-22T00:51:39;13.50;70.30
32706;DHT22;19094;50.972;3.538;2023-12-22T00:54:05;13.50;70.20
32706;DHT22;19094;50.972;3.538;2023-12-22T00:56:30;13.50;70.30
32706;DHT22;19094;50.972;3.538;2023-12-22T00:58:56;13.50;70.50
32706;DHT22;19094;50.972;3.538;2023-12-22T01:01:22;13.50;70.60
32706;DHT22;19094;50.972;3.538;2023-12-22T01:03:47;13.40;70.60
32706;DHT22;19094;50.972;3.538;2023-12-22T01:06:13;13.40;70.70
32706;DHT22;19094;50.972;3.538;2023-12-22T01:08:40;13.40;70.70
32706;DHT22;19094;50.972;3.538;2023-12-22T01:11:06;13.40;70.80
32706;DHT22;19094;50.972;3.538;2023-12-22T01:13:31;13.40;70.70
32706;DHT22;19094;50.972;3.538;2023-12-22T01:15:57;13.40;71.10
32706;DHT22;19094;50.972;3.538;2023-12-22T01:18:23;13.40;70.90
32706;DHT22;19094;50.972;3.538;2023-12-22T01:20:50;13.40;71.00
32706;DHT22;19094;50.972;3.538;2023-12-22T01:23:16;13.40;71.00
32706;DHT22;19094;50.972;3.538;2023-12-22T01:25:42;13.40;70.70
32706;DHT22;19094;50.972;3.538;2023-12-22T01:28:08;13.40;70.80
32706;DHT22;19094;50.972;3.538;2023-12-22T01:30:34;13.50;70.80
32706;DHT22;19094;50.972;3.538;2023-12-22T01:33:00;13.40;70.40
32706;DHT22;19094;50.972;3.538;2023-12-22T01:35:26;13.40;70.70
32706;DHT22;19094;50.972;3.538;2023-12-22T01:37:53;13.40;70.80
32706;DHT22;19094;50.972;3.538;2023-12-22T01:40:20;13.40;70.70
32706;DHT22;19094;50.972;3.538;2023-12-22T01:42:45;13.40;70.60
32706;DHT22;19094;50.972;3.538;2023-12-22T01:45:12;13.40;70.40
32706;DHT22;19094;50.972;3.538;2023-12-22T01:47:38;13.40;70.30
32706;DHT22;19094;50.972;3.538;2023-12-22T01:50:08;13.40;70.40
32706;DHT22;19094;50.972;3.538;2023-12-22T01:52:37;13.40;70.50
32706;DHT22;19094;50.972;3.538;2023-12-22T01:55:03;13.40;70.70
32706;DHT22;19094;50.972;3.538;2023-12-22T01:57:29;13.40;71.20
32706;DHT22;19094;50.972;3.538;2023-12-22T01:59:56;13.40;71.40
32706;DHT22;19094;50.972;3.538;2023-12-22T02:02:22;13.30;71.70
32706;DHT22;19094;50.972;3.538;2023-12-22T02:04:48;13.30;71.80
32706;DHT22;19094;50.972;3.538;2023-12-22T02:07:14;13.30;72.50
32706;DHT22;19094;50.972;3.538;2023-12-22T02:09:40;13.30;71.80
32706;DHT22;19094;50.972;3.538;2023-12-22T02:12:06;13.30;72.00
32706;DHT22;19094;50.972;3.538;2023-12-22T02:14:32;13.40;72.10
32706;DHT22;19094;50.972;3.538;2023-12-22T02:17:26;13.30;72.00
32706;DHT22;19094;50.972;3.538;2023-12-22T02:19:56;13.30;72.10
32706;DHT22;19094;50.972;3.538;2023-12-22T02:22:22;13.30;72.40
32706;DHT22;19094;50.972;3.538;2023-12-22T02:24:48;13.30;72.60
32706;DHT22;19094;50.972;3.538;2023-12-22T02:30:05;13.30;72.60
32706;DHT22;19094;50.972;3.538;2023-12-22T02:32:36;13.30;72.70
32706;DHT22;19094;50.972;3.538;2023-12-22T02:35:05;13.20;72.60
32706;DHT22;19094;50.972;3.538;2023-12-22T02:37:35;13.30;72.70
32706;DHT22;19094;50.972;3.538;2023-12-22T02:40:01;13.30;72.80
32706;DHT22;19094;50.972;3.538;2023-12-22T02:42:29;13.20;72.80
32706;DHT22;19094;50.972;3.538;2023-12-22T02:44:59;13.30;72.90
32706;DHT22;19094;50.972;3.538;2023-12-22T02:47:28;13.30;72.70
32706;DHT22;19094;50.972;3.538;2023-12-22T02:49:54;13.20;72.70
32706;DHT22;19094;50.972;3.538;2023-12-22T02:52:20;13.30;72.60
32706;DHT22;19094;50.972;3.538;2023-12-22T02:54:46;13.20;72.60
32706;DHT22;19094;50.972;3.538;2023-12-22T02:57:12;13.20;72.60
32706;DHT22;19094;50.972;3.538;2023-12-22T02:59:38;13.20;72.60
32706;DHT22;19094;50.972;3.538;2023-12-22T03:02:04;13.20;72.70
32706;DHT22;19094;50.972;3.538;2023-12-22T03:04:30;13.20;72.90
32706;DHT22;19094;50.972;3.538;2023-12-22T03:06:56;13.20;72.80
32706;DHT22;19094;50.972;3.538;2023-12-22T03:09:22;13.20;72.70
32706;DHT22;19094;50.972;3.538;2023-12-22T03:11:48;13.20;72.90
32706;DHT22;19094;50.972;3.538;2023-12-22T03:14:14;13.20;72.80
32706;DHT22;19094;50.972;3.538;2023-12-22T03:16:40;13.10;72.90
32706;DHT22;19094;50.972;3.538;2023-12-22T03:19:09;13.10;73.00
32706;DHT22;19094;50.972;3.538;2023-12-22T03:21:34;13.10;73.10
32706;DHT22;19094;50.972;3.538;2023-12-22T03:24:00;13.10;72.80
32706;DHT22;19094;50.972;3.538;2023-12-22T03:26:29;13.20;73.00
32706;DHT22;19094;50.972;3.538;2023-12-22T03:28:54;13.20;72.70
32706;DHT22;19094;50.972;3.538;2023-12-22T03:31:20;13.20;72.70
32706;DHT22;19094;50.972;3.538;2023-12-22T03:33:46;13.20;72.60
32706;DHT22;19094;50.972;3.538;2023-12-22T03:36:11;13.20;72.50
32706;DHT22;19094;50.972;3.538;2023-12-22T03:38:37;13.20;72.30
32706;DHT22;19094;50.972;3.538;2023-12-22T03:41:03;13.20;72.20
32706;DHT22;19094;50.972;3.538;2023-12-22T03:43:28;13.20;72.10
32706;DHT22;19094;50.972;3.538;2023-12-22T03:45:56;13.30;72.10
32706;DHT22;19094;50.972;3.538;2023-12-22T03:48:22;13.30;72.00
32706;DHT22;19094;50.972;3.538;2023-12-22T03:50:48;13.20;71.60
32706;DHT22;19094;50.972;3.538;2023-12-22T03:53:14;13.30;71.90
32706;DHT22;19094;50.972;3.538;2023-12-22T03:55:39;13.20;71.90
32706;DHT22;19094;50.972;3.538;2023-12-22T03:58:05;13.20;71.60
32706;DHT22;19094;50.972;3.538;2023-12-22T04:00:32;13.30;71.60
32706;DHT22;19094;50.972;3.538;2023-12-22T04:02:58;13.30;71.30
32706;DHT22;19094;50.972;3.538;2023-12-22T04:05:24;13.30;71.20
32706;DHT22;19094;50.972;3.538;2023-12-22T04:07:50;13.30;71.20
32706;DHT22;19094;50.972;3.538;2023-12-22T04:10:19;13.30;71.20
32706;DHT22;19094;50.972;3.538;2023-12-22T04:12:44;13.30;71.20
32706;DHT22;19094;50.972;3.538;2023-12-22T04:15:10;13.30;71.00
32706;DHT22;19094;50.972;3.538;2023-12-22T04:17:36;13.30;71.20
32706;DHT22;19094;50.972;3.538;2023-12-22T04:20:02;13.30;71.00
32706;DHT22;19094;50.972;3.538;2023-12-22T04:22:28;13.30;71.00
32706;DHT22;19094;50.972;3.538;2023-12-22T04:24:53;13.30;70.80
32706;DHT22;19094;50.972;3.538;2023-12-22T04:27:19;13.30;71.10
32706;DHT22;19094;50.972;3.538;2023-12-22T04:29:45;13.30;71.00
32706;DHT22;19094;50.972;3.538;2023-12-22T04:32:10;13.30;71.00
32706;DHT22;19094;50.972;3.538;2023-12-22T04:34:36;13.30;70.80
32706;DHT22;19094;50.972;3.538;2023-12-22T04:37:02;13.30;70.70
32706;DHT22;19094;50.972;3.538;2023-12-22T04:39:27;13.30;71.00
32706;DHT22;19094;50.972;3.538;2023-12-22T04:41:53;13.30;71.60
32706;DHT22;19094;50.972;3.538;2023-12-22T04:44:19;13.30;70.80
32706;DHT22;19094;50.972;3.538;2023-12-22T04:46:44;13.30;70.90
32706;DHT22;19094;50.972;3.538;2023-12-22T04:49:10;13.30;71.10
32706;DHT22;19094;50.972;3.538;2023-12-22T04:51:35;13.30;70.60
32706;DHT22;19094;50.972;3.538;2023-12-22T04:54:01;13.30;70.70
32706;DHT22;19094;50.972;3.538;2023-12-22T04:56:27;13.30;70.80
32706;DHT22;19094;50.972;3.538;2023-12-22T04:58:52;13.30;70.50
32706;DHT22;19094;50.972;3.538;2023-12-22T05:01:18;13.30;70.80
32706;DHT22;19094;50.972;3.538;2023-12-22T05:03:44;13.30;71.00
32706;DHT22;19094;50.972;3.538;2023-12-22T05:06:10;13.30;70.90
32706;DHT22;19094;50.972;3.538;2023-12-22T05:08:36;13.30;71.00
32706;DHT22;19094;50.972;3.538;2023-12-22T05:11:01;13.30;71.00
32706;DHT22;19094;50.972;3.538;2023-12-22T05:13:27;13.20;71.10
32706;DHT22;19094;50.972;3.538;2023-12-22T05:15:53;13.30;71.00
32706;DHT22;19094;50.972;3.538;2023-12-22T05:18:18;13.30;71.00
32706;DHT22;19094;50.972;3.538;2023-12-22T05:20:44;13.30;71.30
32706;DHT22;19094;50.972;3.538;2023-12-22T05:23:10;13.30;70.90
32706;DHT22;19094;50.972;3.538;2023-12-22T05:25:36;13.30;71.20
32706;DHT22;19094;50.972;3.538;2023-12-22T05:28:02;13.30;71.00
32706;DHT22;19094;50.972;3.538;2023-12-22T05:30:27;13.30;70.90
32706;DHT22;19094;50.972;3.538;2023-12-22T05:32:53;13.30;71.10
32706;DHT22;19094;50.972;3.538;2023-12-22T05:35:20;13.30;71.10
32706;DHT22;19094;50.972;3.538;2023-12-22T05:37:46;13.30;71.20
32706;DHT22;19094;50.972;3.538;2023-12-22T05:40:13;13.30;71.10
32706;DHT22;19094;50.972;3.538;2023-12-22T05:42:39;13.30;71.20
32706;DHT22;19094;50.972;3.538;2023-12-22T05:45:06;13.30;71.20
32706;DHT22;19094;50.972;3.538;2023-12-22T05:47:33;13.30;71.20
32706;DHT22;19094;50.972;3.538;2023-12-22T05:49:59;13.30;71.20
32706;DHT22;19094;50.972;3.538;2023-12-22T05:52:24;13.30;71.40
32706;DHT22;19094;50.972;3.538;2023-12-22T05:54:50;13.30;71.30
32706;DHT22;19094;50.972;3.538;2023-12-22T05:57:15;13.30;71.60
32706;DHT22;19094;50.972;3.538;2023-12-22T05:59:42;13.30;71.60
32706;DHT22;19094;50.972;3.538;2023-12-22T06:02:08;13.30;71.80
32706;DHT22;19094;50.972;3.538;2023-12-22T06:04:33;13.30;71.90
32706;DHT22;19094;50.972;3.538;2023-12-22T06:07:00;13.30;72.20
32706;DHT22;19094;50.972;3.538;2023-12-22T06:09:26;13.30;72.20
32706;DHT22;19094;50.972;3.538;2023-12-22T06:11:51;13.30;72.20
32706;DHT22;19094;50.972;3.538;2023-12-22T06:14:17;13.30;72.30
32706;DHT22;19094;50.972;3.538;2023-12-22T06:16:42;13.30;72.50
32706;DHT22;19094;50.972;3.538;2023-12-22T06:19:08;13.20;72.40
32706;DHT22;19094;50.972;3.538;2023-12-22T06:21:37;13.20;72.60
32706;DHT22;19094;50.972;3.538;2023-12-22T06:24:04;13.20;72.60
32706;DHT22;19094;50.972;3.538;2023-12-22T06:26:29;13.20;72.60
32706;DHT22;19094;50.972;3.538;2023-12-22T06:28:56;13.20;72.60
32706;DHT22;19094;50.972;3.538;2023-12-22T06:31:22;13.50;74.00
32706;DHT22;19094;50.972;3.538;2023-12-22T06:33:49;13.50;72.60
32706;DHT22;19094;50.972;3.538;2023-12-22T06:36:25;13.40;72.90
32706;DHT22;19094;50.972;3.538;2023-12-22T06:38:51;13.30;72.50
32706;DHT22;19094;50.972;3.538;2023-12-22T06:41:22;13.30;72.50
32706;DHT22;19094;50.972;3.538;2023-12-22T06:43:48;13.40;72.80
32706;DHT22;19094;50.972;3.538;2023-12-22T06:46:18;13.30;73.80
32706;DHT22;19094;50.972;3.538;2023-12-22T06:48:44;13.20;73.10
32706;DHT22;19094;50.972;3.538;2023-12-22T06:51:20;13.30;73.00
32706;DHT22;19094;50.972;3.538;2023-12-22T06:53:50;13.20;73.00
32706;DHT22;19094;50.972;3.538;2023-12-22T06:56:17;13.30;73.20
32706;DHT22;19094;50.972;3.538;2023-12-22T06:58:43;13.30;73.20
32706;DHT22;19094;50.972;3.538;2023-12-22T07:01:09;13.30;73.30
32706;DHT22;19094;50.972;3.538;2023-12-22T07:03:35;13.30;73.50
32706;DHT22;19094;50.972;3.538;2023-12-22T07:06:02;13.30;73.60
32706;DHT22;19094;50.972;3.538;2023-12-22T07:08:28;13.20;73.70
32706;DHT22;19094;50.972;3.538;2023-12-22T07:10:54;13.30;73.70
32706;DHT22;19094;50.972;3.538;2023-12-22T07:13:19;13.30;73.70
32706;DHT22;19094;50.972;3.538;2023-12-22T07:15:45;13.30;73.70
32706;DHT22;19094;50.972;3.538;2023-12-22T07:18:10;13.30;73.80
32706;DHT22;19094;50.972;3.538;2023-12-22T07:20:36;13.20;74.00
32706;DHT22;19094;50.972;3.538;2023-12-22T07:23:02;13.20;74.10
32706;DHT22;19094;50.972;3.538;2023-12-22T07:25:28;13.20;73.90
32706;DHT22;19094;50.972;3.538;2023-12-22T07:27:53;13.30;74.10
32706;DHT22;19094;50.972;3.538;2023-12-22T07:30:20;13.30;74.20
32706;DHT22;19094;50.972;3.538;2023-12-22T07:32:45;13.30;74.40
32706;DHT22;19094;50.972;3.538;2023-12-22T07:35:14;13.20;74.30
32706;DHT22;19094;50.972;3.538;2023-12-22T07:37:40;13.30;74.40
32706;DHT22;19094;50.972;3.538;2023-12-22T07:40:06;13.30;74.50
32706;DHT22;19094;50.972;3.538;2023-12-22T07:42:32;13.30;74.40
32706;DHT22;19094;50.972;3.538;2023-12-22T07:44:58;13.30;74.50
32706;DHT22;19094;50.972;3.538;2023-12-22T07:47:24;13.30;74.40
32706;DHT22;19094;50.972;3.538;2023-12-22T07:49:49;13.30;74.40
32706;DHT22;19094;50.972;3.538;2023-12-22T07:52:15;13.30;74.50
32706;DHT22;19094;50.972;3.538;2023-12-22T07:54:41;13.30;74.50
32706;DHT22;19094;50.972;3.538;2023-12-22T07:57:06;13.30;74.80
32706;DHT22;19094;50.972;3.538;2023-12-22T07:59:32;13.20;74.70
32706;DHT22;19094;50.972;3.538;2023-12-22T08:01:58;13.20;74.80
32706;DHT22;19094;50.972;3.538;2023-12-22T08:04:24;13.20;74.70
32706;DHT22;19094;50.972;3.538;2023-12-22T08:06:50;13.20;74.80
32706;DHT22;19094;50.972;3.538;2023-12-22T08:09:15;13.30;74.80
32706;DHT22;19094;50.972;3.538;2023-12-22T08:11:41;13.30;74.40
32706;DHT22;19094;50.972;3.538;2023-12-22T08:14:07;13.30;74.50
32706;DHT22;19094;50.972;3.538;2023-12-22T08:16:32;13.30;74.50
32706;DHT22;19094;50.972;3.538;2023-12-22T08:18:58;13.40;74.40
32706;DHT22;19094;50.972;3.538;2023-12-22T08:21:24;13.30;74.30
32706;DHT22;19094;50.972;3.538;2023-12-22T08:23:49;13.40;74.40
32706;DHT22;19094;50.972;3.538;2023-12-22T08:26:16;13.40;74.20
32706;DHT22;19094;50.972;3.538;2023-12-22T08:28:44;13.30;74.30
32706;DHT22;19094;50.972;3.538;2023-12-22T08:31:10;13.30;74.30
32706;DHT22;19094;50.972;3.538;2023-12-22T08:33:39;13.40;74.40
32706;DHT22;19094;50.972;3.538;2023-12-22T08:36:07;13.40;74.30
32706;DHT22;19094;50.972;3.538;2023-12-22T08:38:32;13.40;74.80
32706;DHT22;19094;50.972;3.538;2023-12-22T08:40:58;13.40;74.10
32706;DHT22;19094;50.972;3.538;2023-12-22T08:43:24;13.40;74.00
32706;DHT22;19094;50.972;3.538;2023-12-22T08:45:50;13.40;74.20
32706;DHT22;19094;50.972;3.538;2023-12-22T08:48:15;13.40;74.10
32706;DHT22;19094;50.972;3.538;2023-12-22T08:50:41;13.40;74.20
32706;DHT22;19094;50.972;3.538;2023-12-22T08:53:07;13.40;74.20
32706;DHT22;19094;50.972;3.538;2023-12-22T08:55:32;13.40;74.20
32706;DHT22;19094;50.972;3.538;2023-12-22T08:57:58;13.40;74.10
32706;DHT22;19094;50.972;3.538;2023-12-22T09:00:23;13.50;74.10
32706;DHT22;19094;50.972;3.538;2023-12-22T09:02:49;13.40;73.90
32706;DHT22;19094;50.972;3.538;2023-12-22T09:05:15;13.40;73.90
32706;DHT22;19094;50.972;3.538;2023-12-22T09:07:41;13.50;73.90
32706;DHT22;19094;50.972;3.538;2023-12-22T09:10:06;13.40;73.90
32706;DHT22;19094;50.972;3.538;2023-12-22T09:12:33;13.40;73.90
32706;DHT22;19094;50.972;3.538;2023-12-22T09:14:59;13.40;73.90
32706;DHT22;19094;50.972;3.538;2023-12-22T09:17:26;13.40;73.90
32706;DHT22;19094;50.972;3.538;2023-12-22T09:19:53;13.50;73.90
32706;DHT22;19094;50.972;3.538;2023-12-22T09:22:18;13.40;73.90
32706;DHT22;19094;50.972;3.538;2023-12-22T09:24:44;13.50;73.90
32706;DHT22;19094;50.972;3.538;2023-12-22T09:27:10;13.50;73.80
32706;DHT22;19094;50.972;3.538;2023-12-22T09:29:36;13.50;74.00
32706;DHT22;19094;50.972;3.538;2023-12-22T09:32:01;13.50;74.00
32706;DHT22;19094;50.972;3.538;2023-12-22T09:34:27;13.50;74.10
32706;DHT22;19094;50.972;3.538;2023-12-22T09:36:54;13.50;74.00
32706;DHT22;19094;50.972;3.538;2023-12-22T09:39:19;13.50;73.90
32706;DHT22;19094;50.972;3.538;2023-12-22T09:41:50;13.50;73.80
32706;DHT22;19094;50.972;3.538;2023-12-22T09:44:20;13.50;73.70
32706;DHT22;19094;50.972;3.538;2023-12-22T09:46:48;13.50;73.90
32706;DHT22;19094;50.972;3.538;2023-12-22T09:49:18;13.50;74.00
32706;DHT22;19094;50.972;3.538;2023-12-22T09:51:45;13.50;74.00
32706;DHT22;19094;50.972;3.538;2023-12-22T09:54:13;13.50;73.80
32706;DHT22;19094;50.972;3.538;2023-12-22T09:56:40;13.50;73.90
32706;DHT22;19094;50.972;3.538;2023-12-22T09:59:17;13.50;73.70
32706;DHT22;19094;50.972;3.538;2023-12-22T10:01:45;13.60;73.60
32706;DHT22;19094;50.972;3.538;2023-12-22T10:04:16;13.60;73.60
32706;DHT22;19094;50.972;3.538;2023-12-22T10:06:44;13.50;73.70
32706;DHT22;19094;50.972;3.538;2023-12-22T10:09:13;13.60;73.70
32706;DHT22;19094;50.972;3.538;2023-12-22T10:11:41;13.60;73.60
32706;DHT22;19094;50.972;3.538;2023-12-22T10:14:10;13.60;73.40
32706;DHT22;19094;50.972;3.538;2023-12-22T10:16:37;13.60;73.40
32706;DHT22;19094;50.972;3.538;2023-12-22T10:19:03;13.60;73.60
32706;DHT22;19094;50.972;3.538;2023-12-22T10:21:29;13.60;73.70
32706;DHT22;19094;50.972;3.538;2023-12-22T10:23:57;13.60;73.70
32706;DHT22;19094;50.972;3.538;2023-12-22T10:26:22;13.60;73.60
32706;DHT22;19094;50.972;3.538;2023-12-22T10:28:48;13.60;73.90
32706;DHT22;19094;50.972;3.538;2023-12-22T10:31:14;13.60;73.80
32706;DHT22;19094;50.972;3.538;2023-12-22T10:33:42;13.60;73.70
32706;DHT22;19094;50.972;3.538;2023-12-22T10:36:08;13.60;73.60
32706;DHT22;19094;50.972;3.538;2023-12-22T10:38:34;13.60;73.70
32706;DHT22;19094;50.972;3.538;2023-12-22T10:41:06;13.60;73.60
32706;DHT22;19094;50.972;3.538;2023-12-22T10:43:38;13.60;73.60
32706;DHT22;19094;50.972;3.538;2023-12-22T10:46:04;13.60;73.40
32706;DHT22;19094;50.972;3.538;2023-12-22T10:48:31;13.70;73.40
32706;DHT22;19094;50.972;3.538;2023-12-22T10:50:57;13.60;73.40
32706;DHT22;19094;50.972;3.538;2023-12-22T10:53:23;13.70;73.30
32706;DHT22;19094;50.972;3.538;2023-12-22T10:55:49;13.70;73.40
32706;DHT22;19094;50.972;3.538;2023-12-22T10:58:16;13.70;73.30
32706;DHT22;19094;50.972;3.538;2023-12-22T11:00:45;13.70;73.40
32706;DHT22;19094;50.972;3.538;2023-12-22T11:03:16;13.70;73.10
32706;DHT22;19094;50.972;3.538;2023-12-22T11:05:45;13.70;73.00
32706;DHT22;19094;50.972;3.538;2023-12-22T11:08:11;13.70;74.00
32706;DHT22;19094;50.972;3.538;2023-12-22T11:10:41;13.70;73.40
32706;DHT22;19094;50.972;3.538;2023-12-22T11:13:09;13.70;73.10
32706;DHT22;19094;50.972;3.538;2023-12-22T11:15:36;13.70;72.90
32706;DHT22;19094;50.972;3.538;2023-12-22T11:18:02;13.80;72.90
32706;DHT22;19094;50.972;3.538;2023-12-22T11:20:29;13.70;72.70
32706;DHT22;19094;50.972;3.538;2023-12-22T11:23:00;13.70;72.90
32706;DHT22;19094;50.972;3.538;2023-12-22T11:25:26;13.80;72.70
32706;DHT22;19094;50.972;3.538;2023-12-22T11:27:52;13.80;72.60
32706;DHT22;19094;50.972;3.538;2023-12-22T11:30:20;13.80;72.70
32706;DHT22;19094;50.972;3.538;2023-12-22T11:32:46;13.80;72.80
32706;DHT22;19094;50.972;3.538;2023-12-22T11:35:14;13.80;72.60
32706;DHT22;19094;50.972;3.538;2023-12-22T11:37:41;13.80;72.30
32706;DHT22;19094;50.972;3.538;2023-12-22T11:40:07;13.80;72.50
32706;DHT22;19094;50.972;3.538;2023-12-22T11:42:37;13.80;72.40
32706;DHT22;19094;50.972;3.538;2023-12-22T11:45:05;13.80;72.70
32706;DHT22;19094;50.972;3.538;2023-12-22T11:47:34;13.80;72.80
32706;DHT22;19094;50.972;3.538;2023-12-22T11:50:00;13.80;72.60
32706;DHT22;19094;50.972;3.538;2023-12-22T11:52:27;13.80;72.60
32706;DHT22;19094;50.972;3.538;2023-12-22T11:54:57;13.80;72.60
32706;DHT22;19094;50.972;3.538;2023-12-22T11:57:34;13.80;72.60
32706;DHT22;19094;50.972;3.538;2023-12-22T12:00:09;13.80;72.50
32706;DHT22;19094;50.972;3.538;2023-12-22T12:02:57;13.80;72.60
32706;DHT22;19094;50.972;3.538;2023-12-22T12:05:22;13.80;72.50
32706;DHT22;19094;50.972;3.538;2023-12-22T12:07:48;13.80;72.60
32706;DHT22;19094;50.972;3.538;2023-12-22T12:13:09;13.80;72.60
32706;DHT22;19094;50.972;3.538;2023-12-22T12:15:35;13.80;72.70
32706;DHT22;19094;50.972;3.538;2023-12-22T12:18:05;13.70;72.70
32706;DHT22;19094;50.972;3.538;2023-12-22T12:20:32;13.80;72.60
32706;DHT22;19094;50.972;3.538;2023-12-22T12:22:58;13.80;72.60
32706;DHT22;19094;50.972;3.538;2023-12-22T12:25:28;13.80;72.40
32706;DHT22;19094;50.972;3.538;2023-12-22T12:28:04;13.80;72.50
32706;DHT22;19094;50.972;3.538;2023-12-22T12:30:33;13.80;72.40
32706;DHT22;19094;50.972;3.538;2023-12-22T12:32:59;13.80;72.40
32706;DHT22;19094;50.972;3.538;2023-12-22T12:35:32;13.80;72.40
32706;DHT22;19094;50.972;3.538;2023-12-22T12:37:59;13.80;72.40
32706;DHT22;19094;50.972;3.538;2023-12-22T12:40:27;13.80;72.30
32706;DHT22;19094;50.972;3.538;2023-12-22T12:42:56;13.90;72.10
32706;DHT22;19094;50.972;3.538;2023-12-22T12:45:25;13.90;72.20
32706;DHT22;19094;50.972;3.538;2023-12-22T12:47:59;13.80;71.90
32706;DHT22;19094;50.972;3.538;2023-12-22T12:50:28;13.90;72.10
32706;DHT22;19094;50.972;3.538;2023-12-22T12:52:56;13.90;72.00
32706;DHT22;19094;50.972;3.538;2023-12-22T12:55:23;13.90;72.00
32706;DHT22;19094;50.972;3.538;2023-12-22T12:57:53;13.90;72.00
32706;DHT22;19094;50.972;3.538;2023-12-22T13:02:54;13.90;72.00
32706;DHT22;19094;50.972;3.538;2023-12-22T13:05:24;13.90;72.20
32706;DHT22;19094;50.972;3.538;2023-12-22T13:07:50;13.80;72.00
32706;DHT22;19094;50.972;3.538;2023-12-22T13:10:23;13.80;72.10
32706;DHT22;19094;50.972;3.538;2023-12-22T13:12:52;13.90;72.00
32706;DHT22;19094;50.972;3.538;2023-12-22T13:15:22;13.90;71.80
32706;DHT22;19094;50.972;3.538;2023-12-22T13:17:48;13.90;71.60
32706;DHT22;19094;50.972;3.538;2023-12-22T13:20:14;13.90;71.50
32706;DHT22;19094;50.972;3.538;2023-12-22T13:22:40;13.90;71.90
32706;DHT22;19094;50.972;3.538;2023-12-22T13:25:06;13.90;71.90
32706;DHT22;19094;50.972;3.538;2023-12-22T13:27:33;13.90;71.70
32706;DHT22;19094;50.972;3.538;2023-12-22T13:30:09;14.00;71.50
32706;DHT22;19094;50.972;3.538;2023-12-22T13:32:35;14.00;71.20
32706;DHT22;19094;50.972;3.538;2023-12-22T13:35:00;13.90;71.50
32706;DHT22;19094;50.972;3.538;2023-12-22T13:37:26;13.90;71.50
32706;DHT22;19094;50.972;3.538;2023-12-22T13:39:56;13.90;71.60
32706;DHT22;19094;50.972;3.538;2023-12-22T13:42:23;13.90;71.60
32706;DHT22;19094;50.972;3.538;2023-12-22T13:44:50;13.90;71.50
32706;DHT22;19094;50.972;3.538;2023-12-22T13:47:18;13.90;71.30
32706;DHT22;19094;50.972;3.538;2023-12-22T13:49:44;14.00;71.30
32706;DHT22;19094;50.972;3.538;2023-12-22T13:52:29;14.00;71.40
32706;DHT22;19094;50.972;3.538;2023-12-22T13:54:58;13.90;71.50
32706;DHT22;19094;50.972;3.538;2023-12-22T13:57:26;13.90;71.80
32706;DHT22;19094;50.972;3.538;2023-12-22T13:59:52;13.90;71.60
32706;DHT22;19094;50.972;3.538;2023-12-22T14:02:22;14.00;71.30
32706;DHT22;19094;50.972;3.538;2023-12-22T14:04:49;14.00;71.10
32706;DHT22;19094;50.972;3.538;2023-12-22T14:07:15;14.00;71.20
32706;DHT22;19094;50.972;3.538;2023-12-22T14:09:41;13.90;71.20
32706;DHT22;19094;50.972;3.538;2023-12-22T14:12:07;13.90;71.50
32706;DHT22;19094;50.972;3.538;2023-12-22T14:14:32;14.00;71.30
32706;DHT22;19094;50.972;3.538;2023-12-22T14:16:58;13.90;71.40
32706;DHT22;19094;50.972;3.538;2023-12-22T14:19:24;13.90;71.40
32706;DHT22;19094;50.972;3.538;2023-12-22T14:21:49;13.90;71.50
32706;DHT22;19094;50.972;3.538;2023-12-22T14:24:15;14.00;71.10
32706;DHT22;19094;50.972;3.538;2023-12-22T14:26:55;14.00;71.00
32706;DHT22;19094;50.972;3.538;2023-12-22T14:29:21;14.00;71.10
32706;DHT22;19094;50.972;3.538;2023-12-22T14:31:50;13.90;71.10
32706;DHT22;19094;50.972;3.538;2023-12-22T14:34:17;13.90;71.20
32706;DHT22;19094;50.972;3.538;2023-12-22T14:36:44;13.90;71.10
32706;DHT22;19094;50.972;3.538;2023-12-22T14:39:10;13.90;71.20
32706;DHT22;19094;50.972;3.538;2023-12-22T14:41:39;13.90;71.10
32706;DHT22;19094;50.972;3.538;2023-12-22T14:44:05;13.90;71.10
32706;DHT22;19094;50.972;3.538;2023-12-22T14:46:31;13.90;71.20
32706;DHT22;19094;50.972;3.538;2023-12-22T14:48:56;14.00;71.00
32706;DHT22;19094;50.972;3.538;2023-12-22T14:51:22;13.90;71.00
32706;DHT22;19094;50.972;3.538;2023-12-22T14:53:50;14.00;71.10
32706;DHT22;19094;50.972;3.538;2023-12-22T14:56:16;14.00;70.80
32706;DHT22;19094;50.972;3.538;2023-12-22T14:58:42;14.00;70.90
32706;DHT22;19094;50.972;3.538;2023-12-22T15:01:12;14.00;70.80
32706;DHT22;19094;50.972;3.538;2023-12-22T15:03:40;14.00;70.80
32706;DHT22;19094;50.972;3.538;2023-12-22T15:06:05;14.00;70.60
32706;DHT22;19094;50.972;3.538;2023-12-22T15:08:31;14.00;70.70
32706;DHT22;19094;50.972;3.538;2023-12-22T15:10:57;14.00;70.60
32706;DHT22;19094;50.972;3.538;2023-12-22T15:13:22;14.00;70.70
32706;DHT22;19094;50.972;3.538;2023-12-22T15:15:48;14.00;70.80
32706;DHT22;19094;50.972;3.538;2023-12-22T15:18:14;14.00;71.10
32706;DHT22;19094;50.972;3.538;2023-12-22T15:20:39;14.00;70.70
32706;DHT22;19094;50.972;3.538;2023-12-22T15:23:05;14.00;70.60
32706;DHT22;19094;50.972;3.538;2023-12-22T15:25:31;14.10;70.40
32706;DHT22;19094;50.972;3.538;2023-12-22T15:27:58;14.10;70.50
32706;DHT22;19094;50.972;3.538;2023-12-22T15:30:24;14.00;70.30
32706;DHT22;19094;50.972;3.538;2023-12-22T15:32:51;14.00;70.60
32706;DHT22;19094;50.972;3.538;2023-12-22T15:35:16;14.00;70.50